createdAt,value
2019-01-21T00:00:33.418Z,14.33
2019-01-21T00:03:01.469Z,14.27
2019-01-21T00:05:30.072Z,14.67
2019-01-21T00:07:58.463Z,15.93
2019-01-21T00:10:26.496Z,13.80
2019-01-21T00:12:54.530Z,14.67
2019-01-21T00:15:22.525Z,14.10
2019-01-21T00:17:50.470Z,14.70
2019-01-21T00:20:18.514Z,14.50
2019-01-21T00:22:46.241Z,13.73
2019-01-21T00:25:14.194Z,15.20
2019-01-21T00:27:41.924Z,15.63
2019-01-21T00:30:10.326Z,12.80
2019-01-21T00:32:38.400Z,11.90
2019-01-21T00:35:06.436Z,13.43
2019-01-21T00:37:34.135Z,14.07
2019-01-21T00:40:02.103Z,15.33
2019-01-21T00:42:30.137Z,17.40
2019-01-21T00:44:57.895Z,17.17
2019-01-21T00:47:29.812Z,15.90
2019-01-21T00:49:53.600Z,14.47
2019-01-21T00:52:22.007Z,13.63
2019-01-21T00:54:51.077Z,13.90
2019-01-21T00:57:17.970Z,13.93
2019-01-21T00:59:46.329Z,12.60
2019-01-21T01:02:14.405Z,13.80
2019-01-21T01:04:42.479Z,13.73
2019-01-21T01:07:10.489Z,14.23
2019-01-21T01:09:38.487Z,13.77
2019-01-21T01:12:06.180Z,13.10
2019-01-21T01:14:34.460Z,13.00
2019-01-21T01:17:02.145Z,13.07
2019-01-21T01:19:29.588Z,12.87
2019-01-21T01:21:57.606Z,13.93
2019-01-21T01:24:25.577Z,13.83
2019-01-21T01:26:53.521Z,13.00
2019-01-21T01:29:21.530Z,13.63
2019-01-21T01:31:49.497Z,12.83
2019-01-21T01:34:17.996Z,12.03
2019-01-21T01:36:46.273Z,13.60
2019-01-21T01:39:14.286Z,13.60
2019-01-21T01:41:42.255Z,13.83
2019-01-21T01:44:11.187Z,14.07
2019-01-21T01:46:39.181Z,14.23
2019-01-21T01:49:07.012Z,13.70
2019-01-21T01:51:36.758Z,12.50
2019-01-21T01:54:05.632Z,12.43
2019-01-21T01:56:34.101Z,13.23
2019-01-21T01:59:03.318Z,12.27
2019-01-21T02:01:31.673Z,12.57
2019-01-21T02:04:01.723Z,11.43
2019-01-21T02:06:32.247Z,13.20
2019-01-21T02:08:59.966Z,12.80
2019-01-21T02:11:39.664Z,12.37
2019-01-21T02:14:08.016Z,11.73
2019-01-21T02:16:35.693Z,12.07
2019-01-21T02:19:04.062Z,11.67
2019-01-21T02:21:32.073Z,11.40
2019-01-21T02:24:04.602Z,13.43
2019-01-21T02:26:32.579Z,11.23
2019-01-21T02:29:03.013Z,11.33
2019-01-21T02:31:37.242Z,10.90
2019-01-21T02:34:11.358Z,13.67
2019-01-21T02:36:57.848Z,13.53
2019-01-21T02:39:48.273Z,12.87
2019-01-21T02:42:19.723Z,13.13
2019-01-21T02:45:08.887Z,12.70
2019-01-21T02:48:02.306Z,13.13
2019-01-21T02:50:44.596Z,11.57
2019-01-21T02:53:26.135Z,14.60
2019-01-21T02:56:16.236Z,13.37
2019-01-21T02:59:02.381Z,13.13
2019-01-21T03:01:55.465Z,12.37
2019-01-21T03:04:36.292Z,11.47
2019-01-21T03:07:10.626Z,13.77
2019-01-21T03:10:04.240Z,15.20
2019-01-21T03:12:57.701Z,13.73
2019-01-21T03:15:48.652Z,13.43
2019-01-21T03:18:36.713Z,15.17
2019-01-21T03:21:42.584Z,14.77
2019-01-21T03:24:22.062Z,15.17
2019-01-21T03:26:58.959Z,14.60
2019-01-21T03:29:43.057Z,14.50
2019-01-21T03:32:23.423Z,14.27
2019-01-21T03:35:05.122Z,14.77
2019-01-21T03:37:50.887Z,34.47
2019-01-21T03:40:21.495Z,23.43
2019-01-21T03:42:55.849Z,17.93
2019-01-21T03:45:43.144Z,19.03
2019-01-21T03:48:16.974Z,17.07
2019-01-21T03:51:01.143Z,16.77
2019-01-21T03:53:48.680Z,15.83
2019-01-21T03:56:35.865Z,14.43
2019-01-21T03:59:12.883Z,14.97
2019-01-21T04:02:08.734Z,15.17
2019-01-21T04:04:49.716Z,30.62
2019-01-21T04:07:36.584Z,20.17
2019-01-21T04:10:10.715Z,18.63
2019-01-21T04:12:56.327Z,19.10
2019-01-21T04:15:39.668Z,17.23
2019-01-21T04:18:24.340Z,15.63
2019-01-21T04:21:04.583Z,14.77
2019-01-21T04:23:41.061Z,15.90
2019-01-21T04:26:18.289Z,15.07
2019-01-21T04:28:49.247Z,15.53
2019-01-21T04:31:42.555Z,14.00
2019-01-21T04:34:13.479Z,14.30
2019-01-21T04:37:01.419Z,13.40
2019-01-21T04:40:06.977Z,14.20
2019-01-21T04:42:53.087Z,13.47
2019-01-21T04:45:24.298Z,13.97
2019-01-21T04:48:11.835Z,14.17
2019-01-21T04:50:47.853Z,13.90
2019-01-21T04:53:30.226Z,14.83
2019-01-21T04:56:36.467Z,17.27
2019-01-21T04:59:19.689Z,17.63
2019-01-21T05:02:19.026Z,15.97
2019-01-21T05:05:12.067Z,15.93
2019-01-21T05:08:02.245Z,15.27
2019-01-21T05:11:07.219Z,16.33
2019-01-21T05:13:48.593Z,16.77
2019-01-21T05:16:30.389Z,16.73
2019-01-21T05:19:16.129Z,16.33
2019-01-21T05:22:09.074Z,15.73
2019-01-21T05:25:02.196Z,15.20
2019-01-21T05:27:37.434Z,17.00
2019-01-21T05:30:18.603Z,16.60
2019-01-21T05:33:00.501Z,15.93
2019-01-21T05:35:53.862Z,15.97
2019-01-21T05:38:38.936Z,15.13
2019-01-21T05:41:32.005Z,15.63
2019-01-21T05:44:19.490Z,15.17
2019-01-21T05:47:12.427Z,18.50
2019-01-21T05:50:02.850Z,15.53
2019-01-21T05:52:48.958Z,15.70
2019-01-21T05:55:23.941Z,17.40
2019-01-21T05:57:57.738Z,21.00
2019-01-21T06:00:39.379Z,17.77
2019-01-21T06:03:14.413Z,18.63
2019-01-21T06:06:04.866Z,19.57
2019-01-21T06:08:50.653Z,17.87
2019-01-21T06:11:24.289Z,17.03
2019-01-21T06:14:14.120Z,18.43
2019-01-21T06:17:01.282Z,15.83
2019-01-21T06:19:35.238Z,16.37
2019-01-21T06:22:25.372Z,14.40
2019-01-21T06:25:11.333Z,14.33
2019-01-21T06:27:58.518Z,14.40
2019-01-21T06:30:29.982Z,13.93
2019-01-21T06:33:20.735Z,14.70
2019-01-21T06:36:04.478Z,13.97
2019-01-21T06:38:57.898Z,14.33
2019-01-21T06:41:53.858Z,14.23
2019-01-21T06:44:29.268Z,15.57
2019-01-21T06:47:16.229Z,21.57
2019-01-21T06:49:54.204Z,21.90
2019-01-21T06:52:36.428Z,20.00
2019-01-21T06:55:17.828Z,17.87
2019-01-21T06:58:03.829Z,17.77
2019-01-21T07:01:00.566Z,18.87
2019-01-21T07:03:41.884Z,16.67
2019-01-21T07:06:32.090Z,14.20
2019-01-21T07:09:21.768Z,14.13
2019-01-21T07:11:56.380Z,14.67
2019-01-21T07:14:46.872Z,13.90
2019-01-21T07:17:34.627Z,16.03
2019-01-21T07:20:24.503Z,16.03
2019-01-21T07:23:14.431Z,15.30
2019-01-21T07:25:45.690Z,15.43
2019-01-21T07:28:41.702Z,15.53
2019-01-21T07:31:31.630Z,14.77
2019-01-21T07:34:18.548Z,14.80
2019-01-21T07:37:14.776Z,13.90
2019-01-21T07:39:52.338Z,14.50
2019-01-21T07:42:45.510Z,15.70
2019-01-21T07:45:41.428Z,14.67
2019-01-21T07:48:25.326Z,14.53
2019-01-21T07:51:30.629Z,15.70
2019-01-21T07:54:20.283Z,17.13
2019-01-21T07:57:05.976Z,16.20
2019-01-21T07:59:47.467Z,16.80
2019-01-21T08:02:35.083Z,15.30
2019-01-21T08:05:16.548Z,15.20
2019-01-21T08:08:19.025Z,13.30
2019-01-21T08:10:53.370Z,14.00
2019-01-21T08:13:46.589Z,14.10
2019-01-21T08:16:28.505Z,13.63
2019-01-21T08:19:15.744Z,14.80
2019-01-21T08:21:48.427Z,12.17
2019-01-21T08:24:36.319Z,16.83
2019-01-21T08:27:12.626Z,14.40
2019-01-21T08:29:58.749Z,14.87
2019-01-21T08:32:48.866Z,18.93
2019-01-21T08:35:34.798Z,26.33
2019-01-21T08:38:23.262Z,21.50
2019-01-21T08:41:13.490Z,25.47
2019-01-21T08:44:12.717Z,18.27
2019-01-21T08:46:45.653Z,18.60
2019-01-21T08:49:17.544Z,22.30
2019-01-21T08:52:10.731Z,20.80
2019-01-21T08:55:09.804Z,27.70
2019-01-21T08:57:56.991Z,26.30
2019-01-21T09:00:59.632Z,35.97
2019-01-21T09:03:41.804Z,34.53
2019-01-21T09:06:41.248Z,49.87
2019-01-21T09:09:24.153Z,39.27
2019-01-21T09:12:11.293Z,28.17
2019-01-21T09:15:13.831Z,39.93
2019-01-21T09:18:04.179Z,46.47
2019-01-21T09:20:57.352Z,37.33
2019-01-21T09:23:38.788Z,24.80
2019-01-21T09:26:28.780Z,22.97
2019-01-21T09:29:21.726Z,14.70
2019-01-21T09:32:03.718Z,15.23
2019-01-21T09:35:03.221Z,15.30
2019-01-21T09:37:59.489Z,15.80
2019-01-21T09:40:45.463Z,16.92
2019-01-21T09:43:47.996Z,17.42
2019-01-21T09:46:35.116Z,19.12
2019-01-21T09:49:02.463Z,18.98
2019-01-21T09:51:30.380Z,17.30
2019-01-21T09:53:58.122Z,16.05
2019-01-21T09:56:28.473Z,16.98
2019-01-21T09:58:56.437Z,22.05
2019-01-21T10:01:24.732Z,20.05
2019-01-21T10:03:52.439Z,20.75
2019-01-21T10:06:22.272Z,21.00
2019-01-21T10:08:57.338Z,18.83
2019-01-21T10:11:47.275Z,17.77
2019-01-21T10:14:40.524Z,21.12
2019-01-21T10:17:27.969Z,17.15
2019-01-21T10:20:18.137Z,16.25
2019-01-21T10:22:51.282Z,17.50
2019-01-21T10:25:32.455Z,17.02
2019-01-21T10:28:19.396Z,16.27
2019-01-21T10:31:09.554Z,17.75
2019-01-21T10:34:08.738Z,18.87
2019-01-21T10:36:55.359Z,18.10
2019-01-21T10:39:48.151Z,17.98
2019-01-21T10:42:35.639Z,19.35
2019-01-21T10:45:23.255Z,18.67
2019-01-21T10:47:56.649Z,19.73
2019-01-21T10:50:33.849Z,19.33
2019-01-21T10:53:26.860Z,19.00
2019-01-21T10:56:07.734Z,18.55
2019-01-21T10:58:53.994Z,18.25
2019-01-21T11:01:44.528Z,18.30
2019-01-21T11:04:16.659Z,17.67
2019-01-21T11:07:12.956Z,18.77
2019-01-21T11:09:44.202Z,18.17
2019-01-21T11:12:31.334Z,20.58
2019-01-21T11:15:18.560Z,18.27
2019-01-21T11:17:55.469Z,17.58
2019-01-21T11:20:54.740Z,17.00
2019-01-21T11:23:40.953Z,17.05
2019-01-21T11:26:28.158Z,16.17
2019-01-21T11:29:21.155Z,19.70
2019-01-21T11:31:56.075Z,17.15
2019-01-21T11:34:43.239Z,17.83
2019-01-21T11:37:48.870Z,16.35
2019-01-21T11:40:39.059Z,17.08
2019-01-21T11:43:44.964Z,15.30
2019-01-21T11:46:30.835Z,14.87
2019-01-21T11:49:20.681Z,15.38
2019-01-21T11:52:04.843Z,15.48
2019-01-21T11:54:47.695Z,16.02
2019-01-21T11:57:23.885Z,15.38
2019-01-21T12:00:02.604Z,16.23
2019-01-21T12:02:49.501Z,15.90
2019-01-21T12:05:30.495Z,15.15
2019-01-21T12:08:08.824Z,14.57
2019-01-21T12:10:47.932Z,16.23
2019-01-21T12:13:25.000Z,15.30
2019-01-21T12:16:18.649Z,15.77
2019-01-21T12:19:20.913Z,15.48
2019-01-21T12:22:20.601Z,14.20
2019-01-21T12:24:55.529Z,14.38
2019-01-21T12:27:41.353Z,15.88
2019-01-21T12:30:12.489Z,15.40
2019-01-21T12:33:05.691Z,14.90
2019-01-21T12:35:40.198Z,15.20
2019-01-21T12:38:15.368Z,15.95
2019-01-21T12:40:50.674Z,14.73
2019-01-21T12:43:23.385Z,13.65
2019-01-21T12:45:57.417Z,14.95
2019-01-21T12:48:33.592Z,13.32
2019-01-21T12:51:24.413Z,14.73
2019-01-21T12:54:10.541Z,13.00
2019-01-21T12:56:56.535Z,13.77
2019-01-21T12:59:43.780Z,13.68
2019-01-21T13:02:24.018Z,12.95
2019-01-21T13:05:12.651Z,14.45
2019-01-21T13:08:05.225Z,13.00
2019-01-21T13:10:48.417Z,13.52
2019-01-21T13:13:50.655Z,12.85
2019-01-21T13:16:39.497Z,14.55
2019-01-21T13:19:21.519Z,13.13
2019-01-21T13:21:52.852Z,12.37
2019-01-21T13:24:29.393Z,12.52
2019-01-21T13:27:25.601Z,12.80
2019-01-21T13:30:15.623Z,13.07
2019-01-21T13:32:53.400Z,13.43
2019-01-21T13:35:24.531Z,13.77
2019-01-21T13:38:03.298Z,14.02
2019-01-21T13:40:56.518Z,14.48
2019-01-21T13:43:33.533Z,29.33
2019-01-21T13:46:15.599Z,24.33
2019-01-21T13:49:09.100Z,19.73
2019-01-21T13:51:51.543Z,19.48
2019-01-21T13:54:37.656Z,14.70
2019-01-21T13:57:17.949Z,17.75
2019-01-21T14:00:04.932Z,13.65
2019-01-21T14:02:38.651Z,16.40
2019-01-21T14:05:31.037Z,15.23
2019-01-21T14:08:03.264Z,18.37
2019-01-21T14:10:44.109Z,14.63
2019-01-21T14:13:31.347Z,13.02
2019-01-21T14:16:05.662Z,12.80
2019-01-21T14:19:02.063Z,10.90
2019-01-21T14:21:36.557Z,11.48
2019-01-21T14:24:15.019Z,11.10
2019-01-21T14:27:02.707Z,10.45
2019-01-21T14:29:51.955Z,11.23
2019-01-21T14:32:37.875Z,10.90
2019-01-21T14:35:19.002Z,11.12
2019-01-21T14:38:08.869Z,11.05
2019-01-21T14:40:46.797Z,11.93
2019-01-21T14:43:29.995Z,11.35
2019-01-21T14:46:12.544Z,10.45
2019-01-21T14:48:45.955Z,10.63
2019-01-21T14:51:45.224Z,11.63
2019-01-21T14:54:33.714Z,10.98
2019-01-21T14:57:05.151Z,11.05
2019-01-21T14:59:41.606Z,11.55
2019-01-21T15:02:13.839Z,11.10
2019-01-21T15:04:49.495Z,11.57
2019-01-21T15:07:36.365Z,11.45
2019-01-21T15:10:13.885Z,11.85
2019-01-21T15:12:46.413Z,11.70
2019-01-21T15:15:35.463Z,11.63
2019-01-21T15:18:21.204Z,11.30
2019-01-21T15:20:58.083Z,11.23
2019-01-21T15:23:39.612Z,11.88
2019-01-21T15:26:17.107Z,11.38
2019-01-21T15:28:49.980Z,12.63
2019-01-21T15:31:29.880Z,12.27
2019-01-21T15:34:00.593Z,11.75
2019-01-21T15:36:47.734Z,13.00
2019-01-21T15:39:40.900Z,11.75
2019-01-21T15:42:27.727Z,12.20
2019-01-21T15:45:02.623Z,11.00
2019-01-21T15:47:56.845Z,11.57
2019-01-21T15:50:45.496Z,11.40
2019-01-21T15:53:41.781Z,11.50
2019-01-21T15:56:16.901Z,11.18
2019-01-21T15:58:48.660Z,12.75
2019-01-21T16:01:24.396Z,13.38
2019-01-21T16:04:14.604Z,18.35
2019-01-21T16:06:48.622Z,13.97
2019-01-21T16:09:35.945Z,14.30
2019-01-21T16:12:21.203Z,13.98
2019-01-21T16:14:59.334Z,13.05
2019-01-21T16:17:52.556Z,12.37
2019-01-21T16:20:32.701Z,13.57
2019-01-21T16:23:19.241Z,12.77
2019-01-21T16:25:53.121Z,12.98
2019-01-21T16:28:43.000Z,22.40
2019-01-21T16:31:22.729Z,15.13
2019-01-21T16:34:08.358Z,13.30
2019-01-21T16:36:40.699Z,14.45
2019-01-21T16:39:39.538Z,14.25
2019-01-21T16:42:16.551Z,13.77
2019-01-21T16:44:45.440Z,14.55
2019-01-21T16:47:13.386Z,13.60
2019-01-21T16:49:41.257Z,17.93
2019-01-21T16:52:09.250Z,18.93
2019-01-21T16:54:37.185Z,18.63
2019-01-21T16:57:05.193Z,17.90
2019-01-21T16:59:33.120Z,16.47
2019-01-21T17:02:01.084Z,16.43
2019-01-21T17:04:28.815Z,15.73
2019-01-21T17:06:56.523Z,17.13
2019-01-21T17:09:25.031Z,17.93
2019-01-21T17:11:53.167Z,19.07
2019-01-21T17:14:20.848Z,17.33
2019-01-21T17:16:48.884Z,17.17
2019-01-21T17:19:16.855Z,18.50
2019-01-21T17:21:44.828Z,18.53
2019-01-21T17:24:12.510Z,18.73
2019-01-21T17:26:40.231Z,18.90
2019-01-21T17:29:07.928Z,18.10
2019-01-21T17:31:35.864Z,22.48
2019-01-21T17:34:03.365Z,19.02
2019-01-21T17:36:31.345Z,17.73
2019-01-21T17:38:59.072Z,16.80
2019-01-21T17:41:27.339Z,15.83
2019-01-21T17:43:55.295Z,18.20
2019-01-21T17:46:23.293Z,18.43
2019-01-21T17:48:51.263Z,15.77
2019-01-21T17:51:19.208Z,15.80
2019-01-21T17:53:51.259Z,17.52
2019-01-21T17:56:15.069Z,20.15
2019-01-21T17:58:42.735Z,20.87
2019-01-21T18:01:10.678Z,17.13
2019-01-21T18:03:38.703Z,18.07
2019-01-21T18:06:06.635Z,17.63
2019-01-21T18:08:34.607Z,15.53
2019-01-21T18:11:02.576Z,16.40
2019-01-21T18:13:31.103Z,17.02
2019-01-21T18:15:59.039Z,16.80
2019-01-21T18:18:27.371Z,16.27
2019-01-21T18:20:55.331Z,17.47
2019-01-21T18:23:23.298Z,19.25
2019-01-21T18:25:51.287Z,16.10
2019-01-21T18:28:19.741Z,15.10
2019-01-21T18:30:47.725Z,15.93
2019-01-21T18:33:15.719Z,17.13
2019-01-21T18:35:44.046Z,30.93
2019-01-21T18:38:11.645Z,39.27
2019-01-21T18:40:39.659Z,26.83
2019-01-21T18:43:07.331Z,17.70
2019-01-21T18:45:35.303Z,15.40
2019-01-21T18:48:03.317Z,15.30
2019-01-21T18:50:31.037Z,16.10
2019-01-21T18:52:58.969Z,15.60
2019-01-21T18:55:26.995Z,15.30
2019-01-21T18:57:56.023Z,15.90
2019-01-21T19:00:23.661Z,16.37
2019-01-21T19:02:51.404Z,18.60
2019-01-21T19:05:19.899Z,22.43
2019-01-21T19:07:47.874Z,24.50
2019-01-21T19:10:16.381Z,21.03
2019-01-21T19:12:44.381Z,17.30
2019-01-21T19:15:22.467Z,16.70
2019-01-21T19:17:50.420Z,16.43
2019-01-21T19:20:19.431Z,15.73
2019-01-21T19:22:47.145Z,14.80
2019-01-21T19:25:15.061Z,16.10
2019-01-21T19:27:42.768Z,15.30
2019-01-21T19:30:12.501Z,15.10
2019-01-21T19:32:41.007Z,16.17
2019-01-21T19:35:09.225Z,15.87
2019-01-21T19:37:37.259Z,14.77
2019-01-21T19:40:05.230Z,15.80
2019-01-21T19:42:33.172Z,15.37
2019-01-21T19:45:01.140Z,16.73
2019-01-21T19:47:29.317Z,17.17
2019-01-21T19:49:57.262Z,15.70
2019-01-21T19:52:25.257Z,16.33
2019-01-21T19:54:53.260Z,15.77
2019-01-21T19:57:21.467Z,15.93
2019-01-21T19:59:49.509Z,15.30
2019-01-21T20:02:17.457Z,16.27
2019-01-21T20:04:46.000Z,16.70
2019-01-21T20:07:14.289Z,16.47
2019-01-21T20:09:41.982Z,15.43
2019-01-21T20:12:09.924Z,16.03
2019-01-21T20:14:37.626Z,16.57
2019-01-21T20:17:05.575Z,16.83
2019-01-21T20:19:33.428Z,17.83
2019-01-21T20:22:07.312Z,17.27
2019-01-21T20:24:29.874Z,17.07
2019-01-21T20:26:57.842Z,17.00
2019-01-21T20:29:25.804Z,16.83
2019-01-21T20:31:53.754Z,17.07
2019-01-21T20:34:21.219Z,15.63
2019-01-21T20:36:49.191Z,16.83
2019-01-21T20:39:17.212Z,17.50
2019-01-21T20:41:45.187Z,17.87
2019-01-21T20:44:12.873Z,18.33
2019-01-21T20:46:40.606Z,17.87
2019-01-21T20:49:09.048Z,17.30
2019-01-21T20:51:37.000Z,17.60
2019-01-21T20:54:04.980Z,17.87
2019-01-21T20:56:32.727Z,19.03
2019-01-21T20:59:00.686Z,18.47
2019-01-21T21:01:28.365Z,17.70
2019-01-21T21:03:56.307Z,18.37
2019-01-21T21:06:24.933Z,19.23
2019-01-21T21:08:52.634Z,19.17
2019-01-21T21:11:21.158Z,19.03
2019-01-21T21:13:49.102Z,19.00
2019-01-21T21:16:16.789Z,18.23
2019-01-21T21:18:44.498Z,17.60
2019-01-21T21:21:12.486Z,19.53
2019-01-21T21:23:40.317Z,18.50
2019-01-21T21:26:07.976Z,19.33
2019-01-21T21:28:35.839Z,19.53
2019-01-21T21:31:03.551Z,18.17
2019-01-21T21:33:31.248Z,19.17
2019-01-21T21:35:59.547Z,18.13
2019-01-21T21:38:28.120Z,17.67
2019-01-21T21:40:56.085Z,24.17
2019-01-21T21:43:24.349Z,25.33
2019-01-21T21:45:52.350Z,17.53
2019-01-21T21:48:20.310Z,17.87
2019-01-21T21:50:48.629Z,16.00
2019-01-21T21:53:16.643Z,16.23
2019-01-21T21:55:44.362Z,15.67
2019-01-21T21:58:12.332Z,17.93
2019-01-21T22:00:40.299Z,16.77
2019-01-21T22:03:08.830Z,17.10
2019-01-21T22:05:36.695Z,16.73
2019-01-21T22:08:04.650Z,16.93
2019-01-21T22:10:32.587Z,18.20
2019-01-21T22:13:00.534Z,18.07
2019-01-21T22:15:28.458Z,18.07
2019-01-21T22:17:55.889Z,18.00
2019-01-21T22:20:24.334Z,17.17
2019-01-21T22:22:52.313Z,17.33
2019-01-21T22:25:20.661Z,17.47
2019-01-21T22:27:48.655Z,16.27
2019-01-21T22:30:20.980Z,17.67
2019-01-21T22:32:48.898Z,18.43
2019-01-21T22:35:17.460Z,18.20
2019-01-21T22:37:45.421Z,19.47
2019-01-21T22:40:14.362Z,17.70
2019-01-21T22:42:42.076Z,19.37
2019-01-21T22:45:10.437Z,18.10
2019-01-21T22:47:39.009Z,18.97
2019-01-21T22:50:07.872Z,17.70
2019-01-21T22:52:41.682Z,19.33
2019-01-21T22:55:04.087Z,19.67
2019-01-21T22:57:32.088Z,19.73
2019-01-21T22:59:59.782Z,18.83
2019-01-21T23:02:28.362Z,20.60
2019-01-21T23:04:56.470Z,19.57
2019-01-21T23:07:24.425Z,18.33
2019-01-21T23:09:52.094Z,19.20
2019-01-21T23:12:20.077Z,20.27
2019-01-21T23:14:48.044Z,17.00
2019-01-21T23:17:16.018Z,21.07
2019-01-21T23:19:43.740Z,21.33
2019-01-21T23:22:11.693Z,20.47
2019-01-21T23:24:39.638Z,19.60
2019-01-21T23:27:08.153Z,20.13
2019-01-21T23:29:36.098Z,20.27
2019-01-21T23:32:04.085Z,20.23
2019-01-21T23:34:32.101Z,19.97
2019-01-21T23:37:00.072Z,19.53
2019-01-21T23:39:28.022Z,20.87
2019-01-21T23:41:56.582Z,21.03
2019-01-21T23:44:25.106Z,19.83
2019-01-21T23:46:52.829Z,21.07
2019-01-21T23:49:21.142Z,17.40
2019-01-21T23:51:49.067Z,20.30
2019-01-21T23:54:16.778Z,19.50
2019-01-21T23:56:44.741Z,20.23
2019-01-21T23:59:18.924Z,18.07
